Heinz Schepers — V2OM7 — position and weather

sailwx.info

Track history (hours):
 
Tides and Currents Weather Stations Pressure Air Temp Water Temp Dewpoint Dewpoint Depression Visibility Wind Speed Wind Dir Waves Ship Positions

Heinz Schepers

Last reported at 2018-Feb-19 18:00 UTC. Time now 2018-Feb-19 18:01 UTC.
Position N 56°09' E 016°58'.

Length 101 m; draft 4.9 m.

Type: Cargo ship. MMSI: 304596000.

Date/timePositionNaut miles runAvg speedWind from/ knotsBaromVisibWave heightAir tempDewpointWater temp
2018-Feb-19 18:00N 56°09' E 016°58'711.7
2018-Feb-19 17:26N 56°04' E 016°50'612.6
2018-Feb-19 16:59N 56°01' E 016°41'612.7
2018-Feb-19 16:30N 55°58' E 016°31'812.6
2018-Feb-19 15:53N 55°54' E 016°19'512.6
2018-Feb-19 15:30N 55°52' E 016°12'612.7
2018-Feb-19 15:00N 55°49' E 016°02'612.7
2018-Feb-19 14:30N 55°46' E 015°52'612.9
2018-Feb-19 14:00N 55°42' E 015°42'713.0
2018-Feb-19 13:30N 55°39' E 015°32'613.0
2018-Feb-19 13:00N 55°36' E 015°22'613.0
2018-Feb-19 12:30N 55°33' E 015°12'612.9
2018-Feb-19 12:00N 55°30' E 015°02'612.9
2018-Feb-19 11:30N 55°27' E 014°52'612.9
2018-Feb-19 11:00N 55°24' E 014°42'713.3
2018-Feb-19 10:30N 55°19' E 014°34'713.8
2018-Feb-19 10:01N 55°13' E 014°27'713.9
2018-Feb-19 09:30N 55°08' E 014°19'713.8
2018-Feb-19 09:00N 55°02' E 014°12'4413.6
2018-Feb-19 05:48N 54°47' E 013°00'1814.0
2018-Feb-19 04:31N 54°40' E 012°32'014.4
2018-Feb-19 04:31N 54°40' E 012°32'714.2
2018-Feb-19 04:01N 54°36' E 012°21'2411.9
2018-Feb-19 01:59N 54°24' E 011°45'613.8
2018-Feb-19 01:30N 54°27' E 011°36'713.3
2018-Feb-19 01:00N 54°30' E 011°25'713.0
2018-Feb-19 00:30N 54°33' E 011°15'612.5
2018-Feb-19 00:00N 54°35' E 011°05'714.1
2018-Feb-18 23:30N 54°34' E 010°53'714.2
2018-Feb-18 23:00N 54°34' E 010°41'714.0
2018-Feb-18 22:30N 54°32' E 010°29'714.2
2018-Feb-18 22:00N 54°29' E 010°18'611.6
2018-Feb-18 21:29N 54°24' E 010°12'8 4.3
2018-Feb-18 19:36N 54°21' E 009°60'1 8.1
2018-Feb-18 19:29N 54°21' E 009°58'4 8.0
2018-Feb-18 18:58N 54°22' E 009°51'4 8.0
2018-Feb-18 18:30N 54°21' E 009°45'4 7.7
2018-Feb-18 18:00N 54°18' E 009°41'3 5.8
2018-Feb-18 17:29N 54°16' E 009°37'3 5.6
2018-Feb-18 17:01N 54°13' E 009°36'4 8.2
2018-Feb-18 16:31N 54°11' E 009°30'4 8.3
2018-Feb-18 16:00N 54°09' E 009°23'3 5.5
2018-Feb-18 15:30N 54°07' E 009°20'4 8.2
2018-Feb-18 15:00N 54°03' E 009°19'2 3.6
2018-Feb-18 14:30N 54°02' E 009°18'4 7.8
2018-Feb-18 14:01N 53°58' E 009°16'2 4.1
2018-Feb-18 13:30N 53°56' E 009°13'3 6.8
2018-Feb-18 13:00N 53°54' E 009°09'0 1.0
2018-Feb-18 12:30N 53°53' E 009°09'3 6.1
2018-Feb-18 12:00N 53°53' E 009°14'510.9
2018-Feb-18 11:30N 53°50' E 009°22'612.9
2018-Feb-18 11:01N 53°44' E 009°27'613.0
2018-Feb-18 10:31N 53°38' E 009°32'713.2
2018-Feb-18 10:00N 53°34' E 009°40'612.3
2018-Feb-18 09:30N 53°33' E 009°51'611.4
2018-Feb-18 09:00N 53°32' E 009°60'0 0.7
2018-Feb-18 08:31N 53°32' E 010°00'0 0.0
2018-Feb-18 08:01N 53°32' E 010°00'0 0.0
2018-Feb-18 07:31N 53°32' E 010°00'0 0.0
2018-Feb-18 07:00N 53°32' E 010°00'0 0.0
2018-Feb-18 06:31N 53°32' E 010°00'0 0.0
2018-Feb-18 06:01N 53°32' E 010°00'0 0.6
2018-Feb-18 05:31N 53°32' E 009°60'2 4.6
2018-Feb-18 05:01N 53°32' E 009°56'1 2.0
2018-Feb-18 04:30N 53°32' E 009°55'0 0.0
2018-Feb-18 04:00N 53°32' E 009°55'0 0.0
2018-Feb-18 03:30N 53°32' E 009°55'0 0.0
2018-Feb-18 03:00N 53°32' E 009°55'0 0.0
2018-Feb-18 02:30N 53°32' E 009°55'0 0.0
2018-Feb-18 02:00N 53°32' E 009°55'0 0.0
2018-Feb-18 01:30N 53°32' E 009°55'0 0.0
2018-Feb-18 01:00N 53°32' E 009°55'0 0.0
2018-Feb-18 00:30N 53°32' E 009°55'0 0.0
2018-Feb-18 00:00N 53°32' E 009°55'0 0.0
2018-Feb-17 23:30N 53°32' E 009°55'0 0.0
2018-Feb-17 23:00N 53°32' E 009°55'0 0.0
2018-Feb-17 22:30N 53°32' E 009°55'0 0.0
2018-Feb-17 22:00N 53°32' E 009°55'0 0.0
2018-Feb-17 21:30N 53°32' E 009°55'0 0.0
2018-Feb-17 21:00N 53°32' E 009°55'0 0.0
2018-Feb-17 20:30N 53°32' E 009°55'0 0.0
2018-Feb-17 20:00N 53°32' E 009°55'0 0.3
2018-Feb-17 19:31N 53°32' E 009°54'1 2.7
2018-Feb-17 19:01N 53°32' E 009°56'2 3.2
2018-Feb-17 18:29N 53°30' E 009°56'0 0.0
2018-Feb-17 17:59N 53°30' E 009°56'0 0.0
2018-Feb-17 17:29N 53°30' E 009°56'0 0.0
2018-Feb-17 16:59N 53°30' E 009°56'0 0.0
2018-Feb-17 16:29N 53°30' E 009°56'0 0.0
2018-Feb-17 15:59N 53°30' E 009°56'0 0.0
2018-Feb-17 15:29N 53°30' E 009°56'0 0.0
2018-Feb-17 14:59N 53°30' E 009°56'0 0.0
2018-Feb-17 14:29N 53°30' E 009°56'0 0.0
2018-Feb-17 13:59N 53°30' E 009°56'0 0.0
2018-Feb-17 13:29N 53°30' E 009°56'0 0.0
2018-Feb-17 13:00N 53°30' E 009°56'3 5.4
2018-Feb-17 12:30N 53°32' E 009°54'510.8
2018-Feb-17 12:00N 53°34' E 009°46'612.2
2018-Feb-17 11:30N 53°36' E 009°36'611.5
2018-Feb-17 11:00N 53°40' E 009°30'611.7
2018-Feb-17 10:30N 53°45' E 009°24'612.1
2018-Feb-17 10:00N 53°51' E 009°20'612.0
2018-Feb-17 09:30N 53°53' E 009°11'5 9.5
2018-Feb-17 09:00N 53°52' E 009°03'511.0
2018-Feb-17 08:30N 53°50' E 008°54'510.7
2018-Feb-17 08:00N 53°51' E 008°45'510.8
2018-Feb-17 07:31N 53°56' E 008°40'611.1
2018-Feb-17 07:00N 53°58' E 008°31'611.3
2018-Feb-17 06:30N 53°59' E 008°21'713.0
2018-Feb-17 06:00N 53°60' E 008°10'714.4
2018-Feb-17 05:30N 53°57' E 007°59'6 8.0
2018-Feb-17 04:45N 53°51' E 008°01'416.3
2018-Feb-17 04:30N 53°49' E 008°07'917.1
2018-Feb-17 04:00N 53°43' E 008°17'917.1
2018-Feb-17 03:30N 53°38' E 008°28'2 3.5
2018-Feb-17 02:55N 53°36' E 008°31'0 0.0
2018-Feb-17 02:28N 53°36' E 008°31'0 0.0
2018-Feb-17 01:58N 53°36' E 008°31'0 0.0
2018-Feb-17 01:28N 53°36' E 008°31'0 0.0
2018-Feb-17 00:58N 53°36' E 008°31'0 0.0
2018-Feb-17 00:28N 53°36' E 008°31'0 0.0
2018-Feb-16 23:58N 53°36' E 008°31'0 0.0
2018-Feb-16 23:28N 53°36' E 008°31'0 0.0
2018-Feb-16 22:58N 53°36' E 008°31'0 0.0
2018-Feb-16 22:28N 53°36' E 008°31'0 0.0
2018-Feb-16 21:58N 53°36' E 008°31'0 0.0
2018-Feb-16 21:28N 53°36' E 008°31'0 0.0
2018-Feb-16 20:58N 53°36' E 008°31'0 0.0
2018-Feb-16 20:30N 53°36' E 008°31'2 3.2
2018-Feb-16 20:00N 53°37' E 008°28'713.3
2018-Feb-16 19:30N 53°42' E 008°20'713.5
2018-Feb-16 19:00N 53°46' E 008°11'713.4
2018-Feb-16 18:30N 53°50' E 008°03'9 6.1
2018-Feb-16 17:06N 53°58' E 008°09'312.8
2018-Feb-16 16:52N 53°59' E 008°13'812.6
2018-Feb-16 16:15N 53°59' E 008°26'416.5
2018-Feb-16 16:00N 53°58' E 008°33'816.1
2018-Feb-16 15:30N 53°53' E 008°43'612.9
2018-Feb-16 15:01N 53°51' E 008°53'713.4
2018-Feb-16 14:31N 53°52' E 009°04'3 5.9
2018-Feb-16 14:00N 53°54' E 009°09'0 0.1
2018-Feb-16 13:30N 53°54' E 009°09'3 6.2
2018-Feb-16 13:00N 53°56' E 009°13'4 8.6
2018-Feb-16 12:31N 53°59' E 009°17'4 8.3
2018-Feb-16 12:00N 54°03' E 009°19'4 8.4
2018-Feb-16 11:30N 54°07' E 009°20'4 8.1
2018-Feb-16 11:00N 54°10' E 009°25'4 8.3
2018-Feb-16 10:30N 54°12' E 009°32'4 8.0
2018-Feb-16 10:00N 54°14' E 009°37'4 7.4
2018-Feb-16 09:30N 54°17' E 009°40'4 7.3
2018-Feb-16 09:00N 54°20' E 009°44'4 8.1
2018-Feb-16 08:30N 54°22' E 009°51'2 2.8
2018-Feb-16 07:57N 54°21' E 009°53'3 6.6
2018-Feb-16 07:29N 54°21' E 009°58'14 4.2
2018-Feb-16 04:05N 54°30' E 010°17'1 7.1
2018-Feb-16 03:59N 54°30' E 010°18'510.1
2018-Feb-16 03:30N 54°32' E 010°25'510.9
2018-Feb-16 03:00N 54°34' E 010°34'510.7
2018-Feb-16 02:30N 54°35' E 010°43'510.4
2018-Feb-16 02:00N 54°36' E 010°52'611.2
2018-Feb-16 01:30N 54°36' E 011°02'611.5
2018-Feb-16 01:00N 54°36' E 011°12'612.5
2018-Feb-16 00:30N 54°33' E 011°21'612.2
2018-Feb-16 00:00N 54°30' E 011°31'612.0
2018-Feb-15 23:30N 54°28' E 011°40'1111.7
2018-Feb-15 22:31N 54°26' E 011°60'011.7
2018-Feb-15 22:30N 54°26' E 012°00'611.2
2018-Feb-15 22:00N 54°27' E 012°10'6411.5
2018-Feb-15 16:27N 55°00' E 013°45'712.7
2018-Feb-15 15:55N 55°02' E 013°56'612.4
2018-Feb-15 15:29N 55°05' E 014°04'912.1
2018-Feb-15 14:45N 55°11' E 014°14'312.1
2018-Feb-15 14:28N 55°14' E 014°18'612.2
2018-Feb-15 13:58N 55°19' E 014°24'612.6
2018-Feb-15 13:30N 55°24' E 014°30'612.8
2018-Feb-15 13:00N 55°29' E 014°37'712.0
2018-Feb-15 12:24N 55°36' E 014°36'512.0
2018-Feb-15 11:59N 55°41' E 014°34'812.0
2018-Feb-15 11:21N 55°48' E 014°31'8 0.4
2018-Feb-14 16:50N 55°56' E 014°35'310.4
2018-Feb-14 16:30N 55°57' E 014°41'4 8.2
2018-Feb-14 16:00N 55°60' E 014°47'5 8.8
2018-Feb-14 15:28N 56°04' E 014°49'510.9
2018-Feb-14 15:00N 56°09' E 014°49'0 0.1
2018-Feb-14 10:54N 56°09' E 014°49'0 0.0
2018-Feb-14 10:09N 56°09' E 014°49'0 0.0
2018-Feb-14 09:45N 56°09' E 014°49'0 0.0
2018-Feb-14 09:09N 56°09' E 014°49'0 0.0
2018-Feb-14 07:33N 56°09' E 014°49'0 0.0
2018-Feb-14 07:30N 56°09' E 014°49'0 0.0
2018-Feb-14 07:00N 56°09' E 014°49'0 0.0
2018-Feb-13 22:30N 56°09' E 014°49'2 4.7
2018-Feb-13 22:00N 56°07' E 014°49'611.1
2018-Feb-13 21:31N 56°04' E 014°58'612.4
2018-Feb-13 21:01N 56°02' E 015°08'612.4
2018-Feb-13 20:31N 55°59' E 015°18'612.0
2018-Feb-13 20:00N 55°57' E 015°28'612.1
2018-Feb-13 19:31N 55°54' E 015°37'611.8
2018-Feb-13 19:01N 55°56' E 015°47'612.4
2018-Feb-13 18:31N 55°58' E 015°58'612.2
2018-Feb-13 18:00N 55°60' E 016°08'612.3
2018-Feb-13 17:30N 56°02' E 016°18'612.6
2018-Feb-13 17:00N 56°04' E 016°29'713.4
2018-Feb-13 16:31N 56°08' E 016°39'713.0
2018-Feb-13 16:01N 56°13' E 016°46'713.2
2018-Feb-13 15:31N 56°19' E 016°50'713.3
2018-Feb-13 15:00N 56°25' E 016°55'14111.6
2018-Feb-13 02:54N 58°42' E 017°52'9 9.8
2018-Feb-13 01:57N 58°50' E 017°43'913.2
2018-Feb-13 01:17N 58°59' E 017°43'413.6
2018-Feb-13 01:00N 59°03' E 017°42'4 0.3
2018-Feb-12 13:03N 59°06' E 017°42'1 7.9
2018-Feb-12 12:52N 59°05' E 017°40'411.9
2018-Feb-12 12:30N 59°01' E 017°43'713.3
2018-Feb-12 11:59N 58°54' E 017°43'713.6
2018-Feb-12 11:30N 58°48' E 017°46'613.0
2018-Feb-12 11:01N 58°42' E 017°52'16213.7
2018-Feb-11 23:12N 56°04' E 016°50'314.0
2018-Feb-11 23:00N 56°03' E 016°46'713.8
2018-Feb-11 22:31N 55°60' E 016°35'713.6
2018-Feb-11 21:58N 55°56' E 016°23'613.8
2018-Feb-11 21:30N 55°53' E 016°14'713.9
2018-Feb-11 21:01N 55°49' E 016°03'714.1
2018-Feb-11 20:31N 55°45' E 015°53'714.2
2018-Feb-11 20:01N 55°42' E 015°42'714.2
2018-Feb-11 19:31N 55°39' E 015°30'714.2
2018-Feb-11 19:01N 55°35' E 015°19'714.1
2018-Feb-11 18:30N 55°32' E 015°08'714.2
2018-Feb-11 18:00N 55°29' E 014°57'714.1
2018-Feb-11 17:30N 55°25' E 014°46'713.9
2018-Feb-11 17:00N 55°21' E 014°37'714.2
2018-Feb-11 16:31N 55°15' E 014°29'714.0
2018-Feb-11 16:01N 55°10' E 014°22'714.1
2018-Feb-11 15:31N 55°04' E 014°13'713.7
2018-Feb-11 15:01N 54°60' E 014°05'1113.4
2018-Feb-11 14:10N 54°56' E 013°46'313.5
2018-Feb-11 13:56N 54°55' E 013°41'5213.2
2018-Feb-11 10:01N 54°35' E 012°18'013.9
2018-Feb-11 10:00N 54°35' E 012°18'713.8
2018-Feb-11 09:30N 54°28' E 012°16'712.6
2018-Feb-11 08:59N 54°24' E 012°07'1212.6
2018-Feb-11 08:01N 54°24' E 011°46'012.7
2018-Feb-11 08:00N 54°24' E 011°46'612.6
2018-Feb-11 07:30N 54°27' E 011°37'612.3
2018-Feb-11 07:00N 54°30' E 011°28'611.7
2018-Feb-11 06:30N 54°33' E 011°18'611.1
2018-Feb-11 06:00N 54°35' E 011°10'612.5
2018-Feb-11 05:30N 54°35' E 010°59'713.3
2018-Feb-11 05:00N 54°34' E 010°48'713.7
2018-Feb-11 04:31N 54°33' E 010°36'713.9
2018-Feb-11 04:01N 54°31' E 010°25'20 6.4
2018-Feb-11 00:56N 54°20' E 009°56'4 8.2
2018-Feb-11 00:30N 54°22' E 009°51'3 7.0
2018-Feb-11 00:00N 54°21' E 009°45'4 7.0
2018-Feb-10 23:30N 54°18' E 009°41'3 6.9
2018-Feb-10 23:00N 54°15' E 009°37'3 6.8
2018-Feb-10 22:30N 54°12' E 009°34'1 1.7
2018-Feb-10 22:00N 54°12' E 009°33'2 4.0
2018-Feb-10 21:30N 54°11' E 009°30'4 8.4
2018-Feb-10 21:00N 54°09' E 009°23'4 7.6
2018-Feb-10 20:29N 54°06' E 009°20'4 8.1
2018-Feb-10 20:00N 54°02' E 009°18'4 8.1
2018-Feb-10 19:31N 53°58' E 009°16'4 7.9
2018-Feb-10 19:01N 53°55' E 009°12'3 5.2
2018-Feb-10 18:30N 53°54' E 009°09'1 1.3
2018-Feb-10 18:00N 53°53' E 009°08'5 9.8
2018-Feb-10 17:30N 53°52' E 009°16'612.8
2018-Feb-10 17:00N 53°47' E 009°23'713.7
2018-Feb-10 16:30N 53°42' E 009°30'713.5
2018-Feb-10 16:01N 53°36' E 009°36'612.6
2018-Feb-10 15:30N 53°34' E 009°46'510.4
2018-Feb-10 15:00N 53°32' E 009°54'1 1.8
2018-Feb-10 14:30N 53°32' E 009°55'0 0.0
2018-Feb-10 14:01N 53°32' E 009°55'0 0.0
2018-Feb-10 13:31N 53°32' E 009°55'0 0.0
2018-Feb-10 13:00N 53°32' E 009°55'0 0.0
2018-Feb-10 12:30N 53°32' E 009°55'0 0.0
2018-Feb-10 12:00N 53°32' E 009°55'0 0.0
2018-Feb-10 11:30N 53°32' E 009°55'1 1.5
2018-Feb-10 11:00N 53°32' E 009°55'0 0.1
2018-Feb-10 10:30N 53°32' E 009°55'0 0.0
2018-Feb-10 10:00N 53°32' E 009°55'0 0.0
2018-Feb-10 09:30N 53°32' E 009°55'0 0.0
2018-Feb-10 09:00N 53°32' E 009°55'0 0.0
2018-Feb-10 08:30N 53°32' E 009°55'0 0.0
2018-Feb-10 08:00N 53°32' E 009°55'0 0.0
2018-Feb-10 07:30N 53°32' E 009°55'2 4.2
2018-Feb-10 07:01N 53°30' E 009°56'0 0.2
2018-Feb-10 06:29N 53°30' E 009°56'0 0.0
2018-Feb-10 05:59N 53°30' E 009°56'0 0.0
2018-Feb-10 05:29N 53°30' E 009°56'0 0.0
2018-Feb-10 04:59N 53°30' E 009°56'0 0.0
2018-Feb-10 04:29N 53°30' E 009°56'0 0.0
2018-Feb-10 03:59N 53°30' E 009°56'0 0.0
2018-Feb-10 03:29N 53°30' E 009°56'0 0.0
2018-Feb-10 02:59N 53°30' E 009°56'0 0.0
2018-Feb-10 02:29N 53°30' E 009°56'0 0.0
2018-Feb-10 01:59N 53°30' E 009°56'0 0.0
2018-Feb-10 01:29N 53°30' E 009°56'0 0.9
2018-Feb-10 01:00N 53°31' E 009°56'3 6.6
2018-Feb-10 00:31N 53°33' E 009°52'4 8.2
2018-Feb-10 00:00N 53°34' E 009°45'5 9.1
2018-Feb-09 23:30N 53°35' E 009°38'510.5
2018-Feb-09 23:01N 53°38' E 009°31'2 9.8
2018-Feb-09 22:46N 53°41' E 009°30'310.0
2018-Feb-09 22:30N 53°43' E 009°28'510.0
2018-Feb-09 22:00N 53°47' E 009°23'611.5
2018-Feb-09 21:30N 53°52' E 009°17'611.3
2018-Feb-09 21:01N 53°53' E 009°08'611.0
2018-Feb-09 20:30N 53°51' E 008°59'714.3
2018-Feb-09 20:01N 53°50' E 008°47'  
Track history (hours):
 
Tides and Currents Weather Stations Pressure Air Temp Water Temp Dewpoint Dewpoint Depression Visibility Wind Speed Wind Dir Waves Ship Positions

Heinz Schepers

Last reported at 2018-Feb-19 18:00 UTC. Time now 2018-Feb-19 18:01 UTC.
Position N 56°09' E 016°58'.

Length 101 m; draft 4.9 m.

Type: Cargo ship. MMSI: 304596000.

Date/timePositionNaut miles runAvg speedWind from/ knotsBaromVisibWave heightAir tempDewpointWater temp
2018-Feb-19 18:00N 56°09' E 016°58'711.7
2018-Feb-19 17:26N 56°04' E 016°50'612.6
2018-Feb-19 16:59N 56°01' E 016°41'612.7
2018-Feb-19 16:30N 55°58' E 016°31'812.6
2018-Feb-19 15:53N 55°54' E 016°19'512.6
2018-Feb-19 15:30N 55°52' E 016°12'612.7
2018-Feb-19 15:00N 55°49' E 016°02'612.7
2018-Feb-19 14:30N 55°46' E 015°52'612.9
2018-Feb-19 14:00N 55°42' E 015°42'713.0
2018-Feb-19 13:30N 55°39' E 015°32'613.0
2018-Feb-19 13:00N 55°36' E 015°22'613.0
2018-Feb-19 12:30N 55°33' E 015°12'612.9
2018-Feb-19 12:00N 55°30' E 015°02'612.9
2018-Feb-19 11:30N 55°27' E 014°52'612.9
2018-Feb-19 11:00N 55°24' E 014°42'713.3
2018-Feb-19 10:30N 55°19' E 014°34'713.8
2018-Feb-19 10:01N 55°13' E 014°27'713.9
2018-Feb-19 09:30N 55°08' E 014°19'713.8
2018-Feb-19 09:00N 55°02' E 014°12'4413.6
2018-Feb-19 05:48N 54°47' E 013°00'1814.0
2018-Feb-19 04:31N 54°40' E 012°32'014.4
2018-Feb-19 04:31N 54°40' E 012°32'714.2
2018-Feb-19 04:01N 54°36' E 012°21'2411.9
2018-Feb-19 01:59N 54°24' E 011°45'613.8
2018-Feb-19 01:30N 54°27' E 011°36'713.3
2018-Feb-19 01:00N 54°30' E 011°25'713.0
2018-Feb-19 00:30N 54°33' E 011°15'612.5
2018-Feb-19 00:00N 54°35' E 011°05'714.1
2018-Feb-18 23:30N 54°34' E 010°53'714.2
2018-Feb-18 23:00N 54°34' E 010°41'714.0
2018-Feb-18 22:30N 54°32' E 010°29'714.2
2018-Feb-18 22:00N 54°29' E 010°18'611.6
2018-Feb-18 21:29N 54°24' E 010°12'8 4.3
2018-Feb-18 19:36N 54°21' E 009°60'1 8.1
2018-Feb-18 19:29N 54°21' E 009°58'4 8.0
2018-Feb-18 18:58N 54°22' E 009°51'4 8.0
2018-Feb-18 18:30N 54°21' E 009°45'4 7.7
2018-Feb-18 18:00N 54°18' E 009°41'3 5.8
2018-Feb-18 17:29N 54°16' E 009°37'3 5.6
2018-Feb-18 17:01N 54°13' E 009°36'4 8.2
2018-Feb-18 16:31N 54°11' E 009°30'4 8.3
2018-Feb-18 16:00N 54°09' E 009°23'3 5.5
2018-Feb-18 15:30N 54°07' E 009°20'4 8.2
2018-Feb-18 15:00N 54°03' E 009°19'2 3.6
2018-Feb-18 14:30N 54°02' E 009°18'4 7.8
2018-Feb-18 14:01N 53°58' E 009°16'2 4.1
2018-Feb-18 13:30N 53°56' E 009°13'3 6.8
2018-Feb-18 13:00N 53°54' E 009°09'0 1.0
2018-Feb-18 12:30N 53°53' E 009°09'3 6.1
2018-Feb-18 12:00N 53°53' E 009°14'510.9
2018-Feb-18 11:30N 53°50' E 009°22'612.9
2018-Feb-18 11:01N 53°44' E 009°27'613.0
2018-Feb-18 10:31N 53°38' E 009°32'713.2
2018-Feb-18 10:00N 53°34' E 009°40'612.3
2018-Feb-18 09:30N 53°33' E 009°51'611.4
2018-Feb-18 09:00N 53°32' E 009°60'0 0.7
2018-Feb-18 08:31N 53°32' E 010°00'0 0.0
2018-Feb-18 08:01N 53°32' E 010°00'0 0.0
2018-Feb-18 07:31N 53°32' E 010°00'0 0.0
2018-Feb-18 07:00N 53°32' E 010°00'0 0.0
2018-Feb-18 06:31N 53°32' E 010°00'0 0.0
2018-Feb-18 06:01N 53°32' E 010°00'0 0.6
2018-Feb-18 05:31N 53°32' E 009°60'2 4.6
2018-Feb-18 05:01N 53°32' E 009°56'1 2.0
2018-Feb-18 04:30N 53°32' E 009°55'0 0.0
2018-Feb-18 04:00N 53°32' E 009°55'0 0.0
2018-Feb-18 03:30N 53°32' E 009°55'0 0.0
2018-Feb-18 03:00N 53°32' E 009°55'0 0.0
2018-Feb-18 02:30N 53°32' E 009°55'0 0.0
2018-Feb-18 02:00N 53°32' E 009°55'0 0.0
2018-Feb-18 01:30N 53°32' E 009°55'0 0.0
2018-Feb-18 01:00N 53°32' E 009°55'0 0.0
2018-Feb-18 00:30N 53°32' E 009°55'0 0.0
2018-Feb-18 00:00N 53°32' E 009°55'0 0.0
2018-Feb-17 23:30N 53°32' E 009°55'0 0.0
2018-Feb-17 23:00N 53°32' E 009°55'0 0.0
2018-Feb-17 22:30N 53°32' E 009°55'0 0.0
2018-Feb-17 22:00N 53°32' E 009°55'0 0.0
2018-Feb-17 21:30N 53°32' E 009°55'0 0.0
2018-Feb-17 21:00N 53°32' E 009°55'0 0.0
2018-Feb-17 20:30N 53°32' E 009°55'0 0.0
2018-Feb-17 20:00N 53°32' E 009°55'0 0.3
2018-Feb-17 19:31N 53°32' E 009°54'1 2.7
2018-Feb-17 19:01N 53°32' E 009°56'2 3.2
2018-Feb-17 18:29N 53°30' E 009°56'0 0.0
2018-Feb-17 17:59N 53°30' E 009°56'0 0.0
2018-Feb-17 17:29N 53°30' E 009°56'0 0.0
2018-Feb-17 16:59N 53°30' E 009°56'0 0.0
2018-Feb-17 16:29N 53°30' E 009°56'0 0.0
2018-Feb-17 15:59N 53°30' E 009°56'0 0.0
2018-Feb-17 15:29N 53°30' E 009°56'0 0.0
2018-Feb-17 14:59N 53°30' E 009°56'0 0.0
2018-Feb-17 14:29N 53°30' E 009°56'0 0.0
2018-Feb-17 13:59N 53°30' E 009°56'0 0.0
2018-Feb-17 13:29N 53°30' E 009°56'0 0.0
2018-Feb-17 13:00N 53°30' E 009°56'3 5.4
2018-Feb-17 12:30N 53°32' E 009°54'510.8
2018-Feb-17 12:00N 53°34' E 009°46'612.2
2018-Feb-17 11:30N 53°36' E 009°36'611.5
2018-Feb-17 11:00N 53°40' E 009°30'611.7
2018-Feb-17 10:30N 53°45' E 009°24'612.1
2018-Feb-17 10:00N 53°51' E 009°20'612.0
2018-Feb-17 09:30N 53°53' E 009°11'5 9.5
2018-Feb-17 09:00N 53°52' E 009°03'511.0
2018-Feb-17 08:30N 53°50' E 008°54'510.7
2018-Feb-17 08:00N 53°51' E 008°45'510.8
2018-Feb-17 07:31N 53°56' E 008°40'611.1
2018-Feb-17 07:00N 53°58' E 008°31'611.3
2018-Feb-17 06:30N 53°59' E 008°21'713.0
2018-Feb-17 06:00N 53°60' E 008°10'714.4
2018-Feb-17 05:30N 53°57' E 007°59'6 8.0
2018-Feb-17 04:45N 53°51' E 008°01'416.3
2018-Feb-17 04:30N 53°49' E 008°07'917.1
2018-Feb-17 04:00N 53°43' E 008°17'917.1
2018-Feb-17 03:30N 53°38' E 008°28'2 3.5
2018-Feb-17 02:55N 53°36' E 008°31'0 0.0
2018-Feb-17 02:28N 53°36' E 008°31'0 0.0
2018-Feb-17 01:58N 53°36' E 008°31'0 0.0
2018-Feb-17 01:28N 53°36' E 008°31'0 0.0
2018-Feb-17 00:58N 53°36' E 008°31'0 0.0
2018-Feb-17 00:28N 53°36' E 008°31'0 0.0
2018-Feb-16 23:58N 53°36' E 008°31'0 0.0
2018-Feb-16 23:28N 53°36' E 008°31'0 0.0
2018-Feb-16 22:58N 53°36' E 008°31'0 0.0
2018-Feb-16 22:28N 53°36' E 008°31'0 0.0
2018-Feb-16 21:58N 53°36' E 008°31'0 0.0
2018-Feb-16 21:28N 53°36' E 008°31'0 0.0
2018-Feb-16 20:58N 53°36' E 008°31'0 0.0
2018-Feb-16 20:30N 53°36' E 008°31'2 3.2
2018-Feb-16 20:00N 53°37' E 008°28'713.3
2018-Feb-16 19:30N 53°42' E 008°20'713.5
2018-Feb-16 19:00N 53°46' E 008°11'713.4
2018-Feb-16 18:30N 53°50' E 008°03'9 6.1
2018-Feb-16 17:06N 53°58' E 008°09'312.8
2018-Feb-16 16:52N 53°59' E 008°13'812.6
2018-Feb-16 16:15N 53°59' E 008°26'416.5
2018-Feb-16 16:00N 53°58' E 008°33'816.1
2018-Feb-16 15:30N 53°53' E 008°43'612.9
2018-Feb-16 15:01N 53°51' E 008°53'713.4
2018-Feb-16 14:31N 53°52' E 009°04'3 5.9
2018-Feb-16 14:00N 53°54' E 009°09'0 0.1
2018-Feb-16 13:30N 53°54' E 009°09'3 6.2
2018-Feb-16 13:00N 53°56' E 009°13'4 8.6
2018-Feb-16 12:31N 53°59' E 009°17'4 8.3
2018-Feb-16 12:00N 54°03' E 009°19'4 8.4
2018-Feb-16 11:30N 54°07' E 009°20'4 8.1
2018-Feb-16 11:00N 54°10' E 009°25'4 8.3
2018-Feb-16 10:30N 54°12' E 009°32'4 8.0
2018-Feb-16 10:00N 54°14' E 009°37'4 7.4
2018-Feb-16 09:30N 54°17' E 009°40'4 7.3
2018-Feb-16 09:00N 54°20' E 009°44'4 8.1
2018-Feb-16 08:30N 54°22' E 009°51'2 2.8
2018-Feb-16 07:57N 54°21' E 009°53'3 6.6
2018-Feb-16 07:29N 54°21' E 009°58'14 4.2
2018-Feb-16 04:05N 54°30' E 010°17'1 7.1
2018-Feb-16 03:59N 54°30' E 010°18'510.1
2018-Feb-16 03:30N 54°32' E 010°25'510.9
2018-Feb-16 03:00N 54°34' E 010°34'510.7
2018-Feb-16 02:30N 54°35' E 010°43'510.4
2018-Feb-16 02:00N 54°36' E 010°52'611.2
2018-Feb-16 01:30N 54°36' E 011°02'611.5
2018-Feb-16 01:00N 54°36' E 011°12'612.5
2018-Feb-16 00:30N 54°33' E 011°21'612.2
2018-Feb-16 00:00N 54°30' E 011°31'612.0
2018-Feb-15 23:30N 54°28' E 011°40'1111.7
2018-Feb-15 22:31N 54°26' E 011°60'011.7
2018-Feb-15 22:30N 54°26' E 012°00'611.2
2018-Feb-15 22:00N 54°27' E 012°10'6411.5
2018-Feb-15 16:27N 55°00' E 013°45'712.7
2018-Feb-15 15:55N 55°02' E 013°56'612.4
2018-Feb-15 15:29N 55°05' E 014°04'912.1
2018-Feb-15 14:45N 55°11' E 014°14'312.1
2018-Feb-15 14:28N 55°14' E 014°18'612.2
2018-Feb-15 13:58N 55°19' E 014°24'612.6
2018-Feb-15 13:30N 55°24' E 014°30'612.8
2018-Feb-15 13:00N 55°29' E 014°37'712.0
2018-Feb-15 12:24N 55°36' E 014°36'512.0
2018-Feb-15 11:59N 55°41' E 014°34'812.0
2018-Feb-15 11:21N 55°48' E 014°31'8 0.4
2018-Feb-14 16:50N 55°56' E 014°35'310.4
2018-Feb-14 16:30N 55°57' E 014°41'4 8.2
2018-Feb-14 16:00N 55°60' E 014°47'5 8.8
2018-Feb-14 15:28N 56°04' E 014°49'510.9
2018-Feb-14 15:00N 56°09' E 014°49'0 0.1
2018-Feb-14 10:54N 56°09' E 014°49'0 0.0
2018-Feb-14 10:09N 56°09' E 014°49'0 0.0
2018-Feb-14 09:45N 56°09' E 014°49'0 0.0
2018-Feb-14 09:09N 56°09' E 014°49'0 0.0
2018-Feb-14 07:33N 56°09' E 014°49'0 0.0
2018-Feb-14 07:30N 56°09' E 014°49'0 0.0
2018-Feb-14 07:00N 56°09' E 014°49'0 0.0
2018-Feb-13 22:30N 56°09' E 014°49'2 4.7
2018-Feb-13 22:00N 56°07' E 014°49'611.1
2018-Feb-13 21:31N 56°04' E 014°58'612.4
2018-Feb-13 21:01N 56°02' E 015°08'612.4
2018-Feb-13 20:31N 55°59' E 015°18'612.0
2018-Feb-13 20:00N 55°57' E 015°28'612.1
2018-Feb-13 19:31N 55°54' E 015°37'611.8
2018-Feb-13 19:01N 55°56' E 015°47'612.4
2018-Feb-13 18:31N 55°58' E 015°58'612.2
2018-Feb-13 18:00N 55°60' E 016°08'612.3
2018-Feb-13 17:30N 56°02' E 016°18'612.6
2018-Feb-13 17:00N 56°04' E 016°29'713.4
2018-Feb-13 16:31N 56°08' E 016°39'713.0
2018-Feb-13 16:01N 56°13' E 016°46'713.2
2018-Feb-13 15:31N 56°19' E 016°50'713.3
2018-Feb-13 15:00N 56°25' E 016°55'14111.6
2018-Feb-13 02:54N 58°42' E 017°52'9 9.8
2018-Feb-13 01:57N 58°50' E 017°43'913.2
2018-Feb-13 01:17N 58°59' E 017°43'413.6
2018-Feb-13 01:00N 59°03' E 017°42'4 0.3
2018-Feb-12 13:03N 59°06' E 017°42'1 7.9
2018-Feb-12 12:52N 59°05' E 017°40'411.9
2018-Feb-12 12:30N 59°01' E 017°43'713.3
2018-Feb-12 11:59N 58°54' E 017°43'713.6
2018-Feb-12 11:30N 58°48' E 017°46'613.0
2018-Feb-12 11:01N 58°42' E 017°52'16213.7
2018-Feb-11 23:12N 56°04' E 016°50'314.0
2018-Feb-11 23:00N 56°03' E 016°46'713.8
2018-Feb-11 22:31N 55°60' E 016°35'713.6
2018-Feb-11 21:58N 55°56' E 016°23'613.8
2018-Feb-11 21:30N 55°53' E 016°14'713.9
2018-Feb-11 21:01N 55°49' E 016°03'714.1
2018-Feb-11 20:31N 55°45' E 015°53'714.2
2018-Feb-11 20:01N 55°42' E 015°42'714.2
2018-Feb-11 19:31N 55°39' E 015°30'714.2
2018-Feb-11 19:01N 55°35' E 015°19'714.1
2018-Feb-11 18:30N 55°32' E 015°08'714.2
2018-Feb-11 18:00N 55°29' E 014°57'714.1
2018-Feb-11 17:30N 55°25' E 014°46'713.9
2018-Feb-11 17:00N 55°21' E 014°37'714.2
2018-Feb-11 16:31N 55°15' E 014°29'714.0
2018-Feb-11 16:01N 55°10' E 014°22'714.1
2018-Feb-11 15:31N 55°04' E 014°13'713.7
2018-Feb-11 15:01N 54°60' E 014°05'1113.4
2018-Feb-11 14:10N 54°56' E 013°46'313.5
2018-Feb-11 13:56N 54°55' E 013°41'5213.2
2018-Feb-11 10:01N 54°35' E 012°18'013.9
2018-Feb-11 10:00N 54°35' E 012°18'713.8
2018-Feb-11 09:30N 54°28' E 012°16'712.6
2018-Feb-11 08:59N 54°24' E 012°07'1212.6
2018-Feb-11 08:01N 54°24' E 011°46'012.7
2018-Feb-11 08:00N 54°24' E 011°46'612.6
2018-Feb-11 07:30N 54°27' E 011°37'612.3
2018-Feb-11 07:00N 54°30' E 011°28'611.7
2018-Feb-11 06:30N 54°33' E 011°18'611.1
2018-Feb-11 06:00N 54°35' E 011°10'612.5
2018-Feb-11 05:30N 54°35' E 010°59'713.3
2018-Feb-11 05:00N 54°34' E 010°48'713.7
2018-Feb-11 04:31N 54°33' E 010°36'713.9
2018-Feb-11 04:01N 54°31' E 010°25'20 6.4
2018-Feb-11 00:56N 54°20' E 009°56'4 8.2
2018-Feb-11 00:30N 54°22' E 009°51'3 7.0
2018-Feb-11 00:00N 54°21' E 009°45'4 7.0
2018-Feb-10 23:30N 54°18' E 009°41'3 6.9
2018-Feb-10 23:00N 54°15' E 009°37'3 6.8
2018-Feb-10 22:30N 54°12' E 009°34'1 1.7
2018-Feb-10 22:00N 54°12' E 009°33'2 4.0
2018-Feb-10 21:30N 54°11' E 009°30'4 8.4
2018-Feb-10 21:00N 54°09' E 009°23'4 7.6
2018-Feb-10 20:29N 54°06' E 009°20'4 8.1
2018-Feb-10 20:00N 54°02' E 009°18'4 8.1
2018-Feb-10 19:31N 53°58' E 009°16'4 7.9
2018-Feb-10 19:01N 53°55' E 009°12'3 5.2
2018-Feb-10 18:30N 53°54' E 009°09'1 1.3
2018-Feb-10 18:00N 53°53' E 009°08'5 9.8
2018-Feb-10 17:30N 53°52' E 009°16'612.8
2018-Feb-10 17:00N 53°47' E 009°23'713.7
2018-Feb-10 16:30N 53°42' E 009°30'713.5
2018-Feb-10 16:01N 53°36' E 009°36'612.6
2018-Feb-10 15:30N 53°34' E 009°46'510.4
2018-Feb-10 15:00N 53°32' E 009°54'1 1.8
2018-Feb-10 14:30N 53°32' E 009°55'0 0.0
2018-Feb-10 14:01N 53°32' E 009°55'0 0.0
2018-Feb-10 13:31N 53°32' E 009°55'0 0.0
2018-Feb-10 13:00N 53°32' E 009°55'0 0.0
2018-Feb-10 12:30N 53°32' E 009°55'0 0.0
2018-Feb-10 12:00N 53°32' E 009°55'0 0.0
2018-Feb-10 11:30N 53°32' E 009°55'1 1.5
2018-Feb-10 11:00N 53°32' E 009°55'0 0.1
2018-Feb-10 10:30N 53°32' E 009°55'0 0.0
2018-Feb-10 10:00N 53°32' E 009°55'0 0.0
2018-Feb-10 09:30N 53°32' E 009°55'0 0.0
2018-Feb-10 09:00N 53°32' E 009°55'0 0.0
2018-Feb-10 08:30N 53°32' E 009°55'0 0.0
2018-Feb-10 08:00N 53°32' E 009°55'0 0.0
2018-Feb-10 07:30N 53°32' E 009°55'2 4.2
2018-Feb-10 07:01N 53°30' E 009°56'0 0.2
2018-Feb-10 06:29N 53°30' E 009°56'0 0.0
2018-Feb-10 05:59N 53°30' E 009°56'0 0.0
2018-Feb-10 05:29N 53°30' E 009°56'0 0.0
2018-Feb-10 04:59N 53°30' E 009°56'0 0.0
2018-Feb-10 04:29N 53°30' E 009°56'0 0.0
2018-Feb-10 03:59N 53°30' E 009°56'0 0.0
2018-Feb-10 03:29N 53°30' E 009°56'0 0.0
2018-Feb-10 02:59N 53°30' E 009°56'0 0.0
2018-Feb-10 02:29N 53°30' E 009°56'0 0.0
2018-Feb-10 01:59N 53°30' E 009°56'0 0.0
2018-Feb-10 01:29N 53°30' E 009°56'0 0.9
2018-Feb-10 01:00N 53°31' E 009°56'3 6.6
2018-Feb-10 00:31N 53°33' E 009°52'4 8.2
2018-Feb-10 00:00N 53°34' E 009°45'5 9.1
2018-Feb-09 23:30N 53°35' E 009°38'510.5
2018-Feb-09 23:01N 53°38' E 009°31'2 9.8
2018-Feb-09 22:46N 53°41' E 009°30'310.0
2018-Feb-09 22:30N 53°43' E 009°28'510.0
2018-Feb-09 22:00N 53°47' E 009°23'611.5
2018-Feb-09 21:30N 53°52' E 009°17'611.3
2018-Feb-09 21:01N 53°53' E 009°08'611.0
2018-Feb-09 20:30N 53°51' E 008°59'714.3
2018-Feb-09 20:01N 53°50' E 008°47'  

Dump ship's entire track history